Time;durP1;ratioP1;P1;durP2;ratioP2;P2;SDS_P1;SDS_P2;PMS_P1;PMS_P2;Temp;Humidity;BMP_temperature;BMP_pressure;BME280_temperature;BME280_humidity;BME280_pressure;Samples;Min_cycle;Max_cycle;Signal;HPM_P1;HPM_P2
2022/07/01 00:00:24;;;;;;;4.47;3.88;;;;;21.70;101326.00;;;;5067604;28;20227;-79
2022/07/01 00:02:52;;;;;;;4.60;4.13;;;;;21.70;101320.00;;;;5052824;28;20211;-79
2022/07/01 00:05:21;;;;;;;5.80;4.00;;;;;21.70;101315.00;;;;5050628;28;20196;-79
2022/07/01 00:07:48;;;;;;;6.63;3.97;;;;;21.70;101306.00;;;;5050575;28;20752;-79
2022/07/01 00:10:16;;;;;;;3.85;3.45;;;;;21.70;101293.00;;;;5062305;28;20199;-78
2022/07/01 00:12:43;;;;;;;4.15;3.75;;;;;21.70;101298.00;;;;5070179;28;20190;-79
2022/07/01 00:15:11;;;;;;;4.53;3.63;;;;;21.70;101305.00;;;;5061639;28;20210;-79
2022/07/01 00:17:39;;;;;;;4.28;3.67;;;;;21.70;101292.00;;;;5049999;28;20570;-79
2022/07/01 00:20:08;;;;;;;3.78;3.38;;;;;21.70;101303.00;;;;5063485;28;20629;-79
2022/07/01 00:22:37;;;;;;;3.90;3.60;;;;;21.70;101309.00;;;;5065871;28;20244;-79
2022/07/01 00:25:05;;;;;;;4.05;3.65;;;;;21.70;101316.00;;;;5060752;28;21008;-79
2022/07/01 00:27:32;;;;;;;5.35;4.05;;;;;21.70;101327.00;;;;5049801;28;20204;-78
2022/07/01 00:29:59;;;;;;;4.10;3.70;;;;;21.70;101336.00;;;;5049573;28;20207;-79
2022/07/01 00:32:26;;;;;;;5.38;3.40;;;;;21.70;101343.00;;;;5062301;28;20223;-79
2022/07/01 00:34:54;;;;;;;7.07;3.42;;;;;21.60;101338.00;;;;5047901;28;20203;-79
2022/07/01 00:37:21;;;;;;;4.32;3.92;;;;;21.60;101335.00;;;;5050462;28;20680;-78
2022/07/01 00:39:50;;;;;;;4.40;4.00;;;;;21.60;101329.00;;;;5048783;28;20235;-79
2022/07/01 00:42:17;;;;;;;4.28;3.88;;;;;21.60;101330.00;;;;5048035;28;20204;-79
2022/07/01 00:44:44;;;;;;;5.22;4.07;;;;;21.60;101329.00;;;;5050173;28;20203;-78
2022/07/01 00:47:14;;;;;;;5.00;4.53;;;;;21.50;101330.00;;;;5049462;28;20210;-78
2022/07/01 00:49:42;;;;;;;6.22;5.30;;;;;21.50;101327.00;;;;5049936;28;20207;-80
2022/07/01 00:52:10;;;;;;;7.28;5.28;;;;;21.50;101330.00;;;;5048664;28;20199;-80
2022/07/01 00:54:38;;;;;;;7.70;5.38;;;;;21.50;101338.00;;;;5063092;28;20222;-81
2022/07/01 00:57:12;;;;;;;8.68;6.75;;;;;21.40;101339.00;;;;5056040;28;20585;-80
2022/07/01 00:59:40;;;;;;;11.75;7.57;;;;;21.50;101312.00;;;;5049358;28;20235;-79
2022/07/01 01:02:09;;;;;;;8.23;7.40;;;;;21.40;101313.00;;;;5049364;28;20208;-79
2022/07/01 01:04:36;;;;;;;7.85;6.93;;;;;21.40;101319.00;;;;5049690;28;20286;-80
2022/07/01 01:07:04;;;;;;;8.15;7.07;;;;;21.40;101326.00;;;;5050781;28;20199;-80
2022/07/01 01:09:32;;;;;;;10.38;7.68;;;;;21.40;101322.00;;;;5061310;28;20211;-81
2022/07/01 01:11:59;;;;;;;10.35;7.88;;;;;21.40;101324.00;;;;5058442;28;20203;-80
2022/07/01 01:14:28;;;;;;;9.35;8.07;;;;;21.40;101327.00;;;;5048190;28;20578;-81
2022/07/01 01:16:55;;;;;;;9.95;6.97;;;;;21.40;101327.00;;;;5053246;28;20218;-80
2022/07/01 01:19:22;;;;;;;10.45;8.50;;;;;21.40;101336.00;;;;5067559;28;20217;-81
2022/07/01 01:21:51;;;;;;;9.30;8.38;;;;;21.40;101334.00;;;;5058363;28;20202;-80
2022/07/01 01:24:19;;;;;;;10.60;7.72;;;;;21.40;101338.00;;;;5048801;28;20230;-80
2022/07/01 01:26:46;;;;;;;10.98;8.70;;;;;21.40;101341.00;;;;5049250;28;20670;-80
2022/07/01 01:29:13;;;;;;;10.77;9.10;;;;;21.40;101337.00;;;;5065756;28;20213;-81
2022/07/01 01:31:42;;;;;;;11.13;8.70;;;;;21.40;101346.00;;;;5069084;28;20218;-80
2022/07/01 01:34:09;;;;;;;13.45;9.20;;;;;21.40;101350.00;;;;5062974;28;20557;-80
2022/07/01 01:36:37;;;;;;;10.27;8.90;;;;;21.40;101360.00;;;;5048984;28;20219;-80
2022/07/01 01:39:08;;;;;;;11.20;9.70;;;;;21.40;101366.00;;;;5047306;28;20211;-80
2022/07/01 01:41:36;;;;;;;11.23;8.50;;;;;21.30;101372.00;;;;5048886;28;20187;-80
2022/07/01 01:44:03;;;;;;;10.25;7.78;;;;;21.30;101375.00;;;;5058222;28;20187;-80
2022/07/01 01:46:31;;;;;;;10.07;8.85;;;;;21.30;101373.00;;;;5058117;28;20202;-80
2022/07/01 01:48:59;;;;;;;9.20;7.80;;;;;21.30;101369.00;;;;5058844;28;20688;-80
2022/07/01 01:51:26;;;;;;;9.80;8.80;;;;;21.30;101361.00;;;;5048823;28;20203;-80
2022/07/01 01:53:54;;;;;;;11.48;8.70;;;;;21.30;101363.00;;;;5065617;28;20237;-80
2022/07/01 01:56:22;;;;;;;9.68;8.63;;;;;21.20;101363.00;;;;5050558;28;20199;-81
2022/07/01 01:58:50;;;;;;;9.70;8.43;;;;;21.20;101355.00;;;;5060394;28;20666;-80
2022/07/01 02:01:19;;;;;;;9.45;8.50;;;;;21.20;101361.00;;;;5060648;28;20227;-80
2022/07/01 02:03:49;;;;;;;9.95;8.95;;;;;21.20;101376.00;;;;5051935;28;20199;-80
2022/07/01 02:06:18;;;;;;;10.70;9.60;;;;;21.20;101375.00;;;;5048450;28;20195;-80
2022/07/01 02:08:46;;;;;;;9.90;8.75;;;;;21.20;101367.00;;;;5047495;28;20274;-80
2022/07/01 02:11:13;;;;;;;12.23;9.15;;;;;21.20;101368.00;;;;5047516;28;20211;-80
2022/07/01 02:13:44;;;;;;;12.80;8.50;;;;;21.20;101369.00;;;;5047911;28;20220;-81
2022/07/01 02:16:11;;;;;;;9.57;8.55;;;;;21.10;101369.00;;;;5047822;28;20203;-81
2022/07/01 02:18:39;;;;;;;10.55;8.70;;;;;21.10;101362.00;;;;5049933;28;20203;-80
2022/07/01 02:21:06;;;;;;;11.45;9.38;;;;;21.10;101362.00;;;;5048933;28;20223;-80
2022/07/01 02:23:34;;;;;;;10.30;8.68;;;;;21.10;101360.00;;;;5060643;28;20198;-80
2022/07/01 02:26:01;;;;;;;10.88;8.57;;;;;21.00;101368.00;;;;5057344;28;20277;-81
2022/07/01 02:28:28;;;;;;;10.20;8.40;;;;;21.00;101365.00;;;;5053124;28;20203;-80
2022/07/01 02:30:57;;;;;;;12.68;9.38;;;;;21.00;101368.00;;;;5048003;28;20230;-81
2022/07/01 02:33:24;;;;;;;10.40;8.98;;;;;21.00;101374.00;;;;5058146;28;20211;-80
2022/07/01 02:35:52;;;;;;;10.48;9.13;;;;;20.90;101380.00;;;;5051070;28;20200;-80
2022/07/01 02:38:19;;;;;;;13.05;10.32;;;;;20.90;101392.00;;;;5048544;28;20206;-80
2022/07/01 02:40:46;;;;;;;11.70;8.27;;;;;20.90;101401.00;;;;5049147;28;20227;-80
2022/07/01 02:43:15;;;;;;;11.50;8.82;;;;;20.90;101399.00;;;;5059466;28;20210;-80
2022/07/01 02:45:43;;;;;;;10.32;7.68;;;;;20.80;101393.00;;;;5052734;28;20199;-80
2022/07/01 02:48:11;;;;;;;11.18;8.20;;;;;20.80;101396.00;;;;5058249;28;20191;-80
2022/07/01 02:50:39;;;;;;;11.30;8.38;;;;;20.80;101403.00;;;;5052996;28;20206;-80
2022/07/01 02:53:06;;;;;;;11.77;8.65;;;;;20.80;101380.00;;;;5059949;28;20199;-80
2022/07/01 02:55:33;;;;;;;11.18;9.43;;;;;20.70;101362.00;;;;5052241;28;20227;-80
2022/07/01 02:58:04;;;;;;;11.15;8.15;;;;;20.70;101349.00;;;;5052010;28;20192;-80
2022/07/01 03:00:31;;;;;;;9.90;8.85;;;;;20.70;101352.00;;;;5054011;28;20224;-80
2022/07/01 03:02:58;;;;;;;10.63;8.65;;;;;20.70;101373.00;;;;5064669;28;20210;-80
2022/07/01 03:05:27;;;;;;;10.65;8.50;;;;;20.70;101369.00;;;;5061134;28;21014;-80
2022/07/01 03:08:09;;;;;;;9.98;8.20;;;;;20.50;101371.00;;;;5051567;28;20200;-80
2022/07/01 03:10:37;;;;;;;10.70;8.85;;;;;20.60;101382.00;;;;5029621;28;20198;-79
2022/07/01 03:13:04;;;;;;;11.00;8.40;;;;;20.60;101375.00;;;;5033575;28;20200;-80
2022/07/01 03:15:31;;;;;;;9.48;8.13;;;;;20.60;101357.00;;;;5030966;28;20196;-80
2022/07/01 03:17:59;;;;;;;12.50;9.73;;;;;20.60;101368.00;;;;5048240;28;20331;-80
2022/07/01 03:20:28;;;;;;;12.43;8.25;;;;;20.50;101379.00;;;;5039862;28;20235;-80
2022/07/01 03:22:55;;;;;;;9.93;8.25;;;;;20.50;101382.00;;;;5038015;28;20219;-80
2022/07/01 03:25:23;;;;;;;17.17;9.32;;;;;20.50;101385.00;;;;5042755;28;20207;-80
2022/07/01 03:27:50;;;;;;;14.07;10.00;;;;;20.50;101374.00;;;;5036762;28;20195;-80
2022/07/01 03:30:18;;;;;;;10.25;8.82;;;;;20.50;101383.00;;;;5039739;28;20685;-80
2022/07/01 03:32:46;;;;;;;15.50;8.65;;;;;20.50;101384.00;;;;5037455;28;20666;-80
2022/07/01 03:37:59;;;;;;;10.73;9.38;;;;;20.50;101382.00;;;;5027940;28;20693;-81
2022/07/01 03:40:27;;;;;;;9.85;8.35;;;;;20.50;101391.00;;;;5029158;28;20605;-80
2022/07/01 03:42:54;;;;;;;10.70;8.23;;;;;20.50;101389.00;;;;5062804;28;20206;-80
2022/07/01 03:45:21;;;;;;;13.48;9.98;;;;;20.50;101383.00;;;;5067870;28;20203;-81
2022/07/01 03:47:50;;;;;;;11.13;9.20;;;;;20.40;101389.00;;;;5070748;28;20232;-80
2022/07/01 03:50:17;;;;;;;12.27;8.85;;;;;20.40;101389.00;;;;5069033;28;20210;-80
2022/07/01 03:52:45;;;;;;;12.20;10.00;;;;;20.40;101389.00;;;;5066638;28;20209;-80
2022/07/01 03:55:13;;;;;;;13.50;9.98;;;;;20.40;101400.00;;;;5070382;28;20231;-80
2022/07/01 03:57:40;;;;;;;13.32;10.45;;;;;20.40;101416.00;;;;5070953;28;20226;-80
2022/07/01 04:00:09;;;;;;;14.07;10.70;;;;;20.40;101420.00;;;;5067397;28;20218;-80
2022/07/01 04:02:37;;;;;;;12.80;10.38;;;;;20.40;101425.00;;;;5047937;28;20192;-80
2022/07/01 04:05:04;;;;;;;12.57;10.02;;;;;20.40;101420.00;;;;5050176;28;20560;-80
2022/07/01 04:07:32;;;;;;;12.98;10.23;;;;;20.40;101422.00;;;;5050311;28;20204;-80
2022/07/01 04:09:59;;;;;;;12.02;9.30;;;;;20.50;101427.00;;;;5049727;28;20272;-80
2022/07/01 04:12:28;;;;;;;11.43;9.88;;;;;20.40;101424.00;;;;5055371;28;20200;-80
2022/07/01 04:14:55;;;;;;;12.02;9.65;;;;;20.50;101430.00;;;;5058641;28;20207;-80
2022/07/01 04:17:22;;;;;;;12.95;9.40;;;;;20.50;101430.00;;;;5062201;28;20291;-80
2022/07/01 04:19:50;;;;;;;14.57;9.45;;;;;20.50;101425.00;;;;5062343;28;20200;-80
2022/07/01 04:22:32;;;;;;;12.77;9.48;;;;;20.40;101438.00;;;;5060995;28;20203;-82
2022/07/01 04:25:00;;;;;;;11.07;9.38;;;;;20.40;101447.00;;;;5050973;28;20321;-80
2022/07/01 04:27:29;;;;;;;13.02;9.30;;;;;20.40;101449.00;;;;5050375;28;20273;-80
2022/07/01 04:29:56;;;;;;;12.52;9.57;;;;;20.40;101451.00;;;;5052960;28;20227;-80
2022/07/01 04:32:24;;;;;;;14.55;9.38;;;;;20.40;101460.00;;;;5051720;28;21877;-80
2022/07/01 04:34:51;;;;;;;12.55;8.85;;;;;20.40;101457.00;;;;5059136;28;20230;-80
2022/07/01 04:37:19;;;;;;;13.48;9.32;;;;;20.40;101452.00;;;;5067985;28;20583;-79
2022/07/01 04:39:46;;;;;;;13.23;9.55;;;;;20.40;101452.00;;;;5053716;28;20204;-79
2022/07/01 04:42:15;;;;;;;15.05;10.20;;;;;20.40;101447.00;;;;5050825;28;20194;-79
2022/07/01 04:44:43;;;;;;;11.80;9.30;;;;;20.40;101444.00;;;;5055280;28;20206;-79
2022/07/01 04:47:11;;;;;;;11.45;9.15;;;;;20.40;101439.00;;;;5049909;28;20207;-79
2022/07/01 04:49:38;;;;;;;13.68;9.02;;;;;20.40;101426.00;;;;5048612;28;20200;-79
2022/07/01 04:52:06;;;;;;;13.73;9.32;;;;;20.40;101440.00;;;;5052362;28;20196;-80
2022/07/01 04:54:33;;;;;;;14.95;10.20;;;;;20.40;101432.00;;;;5049519;28;20230;-81
2022/07/01 04:57:00;;;;;;;14.52;10.32;;;;;20.40;101444.00;;;;5049183;28;20586;-80
2022/07/01 04:59:28;;;;;;;11.80;8.68;;;;;20.40;101448.00;;;;5048964;28;20207;-82
2022/07/01 05:01:58;;;;;;;14.02;9.32;;;;;20.40;101457.00;;;;5048319;28;20227;-80
2022/07/01 05:04:27;;;;;;;14.00;9.77;;;;;20.40;101444.00;;;;5050095;28;20199;-79
2022/07/01 05:06:55;;;;;;;14.45;10.02;;;;;20.40;101462.00;;;;5050255;28;20207;-80
2022/07/01 05:09:22;;;;;;;14.00;9.55;;;;;20.40;101464.00;;;;5049302;28;20273;-79
2022/07/01 05:11:50;;;;;;;16.40;10.80;;;;;20.40;101465.00;;;;5054515;28;20199;-80
2022/07/01 05:14:17;;;;;;;12.13;9.68;;;;;20.40;101467.00;;;;5069123;28;20210;-80
2022/07/01 05:16:44;;;;;;;11.85;9.30;;;;;20.40;101463.00;;;;5069142;28;20202;-80
2022/07/01 05:21:58;;;;;;;12.15;8.98;;;;;20.40;101455.00;;;;5049010;28;20238;-80
2022/07/01 05:24:29;;;;;;;14.05;9.77;;;;;20.40;101450.00;;;;5058207;28;20203;-80
2022/07/01 05:26:56;;;;;;;13.65;9.75;;;;;20.40;101454.00;;;;5058809;28;20228;-80
2022/07/01 05:29:24;;;;;;;12.10;9.05;;;;;20.40;101450.00;;;;5068771;28;20210;-80
2022/07/01 05:31:54;;;;;;;11.85;8.77;;;;;20.40;101458.00;;;;5064099;28;20222;-80
2022/07/01 05:34:23;;;;;;;10.13;7.97;;;;;20.40;101448.00;;;;5055439;28;20199;-81
2022/07/01 05:36:50;;;;;;;11.50;8.27;;;;;20.40;101460.00;;;;5063591;28;20211;-80
2022/07/01 05:39:18;;;;;;;10.65;8.70;;;;;20.50;101462.00;;;;5057224;28;20207;-81
2022/07/01 05:41:45;;;;;;;10.13;7.93;;;;;20.50;101471.00;;;;5052108;28;20223;-81
2022/07/01 05:44:13;;;;;;;11.50;8.85;;;;;20.50;101475.00;;;;5048064;28;20700;-82
2022/07/01 05:46:40;;;;;;;10.30;8.18;;;;;20.50;101463.00;;;;5062024;28;20696;-82
2022/07/01 05:49:08;;;;;;;11.27;8.55;;;;;20.50;101457.00;;;;5065314;28;20207;-81
2022/07/01 05:51:37;;;;;;;10.80;8.32;;;;;20.50;101458.00;;;;5050203;28;20210;-81
2022/07/01 05:54:05;;;;;;;12.00;7.85;;;;;20.50;101457.00;;;;5053953;28;20229;-77
2022/07/01 05:56:33;;;;;;;13.55;8.32;;;;;20.50;101459.00;;;;5058629;28;20202;-77
2022/07/01 05:59:00;;;;;;;9.70;7.55;;;;;20.50;101464.00;;;;5048335;28;20671;-79
2022/07/01 06:01:29;;;;;;;11.00;8.02;;;;;20.60;101462.00;;;;5048672;28;20322;-79
2022/07/01 06:03:57;;;;;;;9.55;7.20;;;;;20.60;101464.00;;;;5053676;28;20203;-78
2022/07/01 06:06:24;;;;;;;12.07;7.95;;;;;20.60;101473.00;;;;5064351;28;20734;-77
2022/07/01 06:08:53;;;;;;;8.13;7.07;;;;;20.60;101468.00;;;;5055933;28;20199;-76
2022/07/01 06:11:20;;;;;;;12.38;7.95;;;;;20.70;101464.00;;;;5049008;28;20199;-77
2022/07/01 06:13:47;;;;;;;10.60;7.57;;;;;20.70;101467.00;;;;5052936;28;20195;-76
2022/07/01 06:16:14;;;;;;;10.18;7.30;;;;;20.70;101471.00;;;;5055768;28;20240;-76
2022/07/01 06:18:42;;;;;;;9.68;6.72;;;;;20.70;101467.00;;;;5050906;28;20203;-76
2022/07/01 06:21:09;;;;;;;10.48;7.05;;;;;20.70;101468.00;;;;5067908;28;20226;-77
2022/07/01 06:23:37;;;;;;;7.28;5.82;;;;;20.70;101459.00;;;;5068109;28;20195;-76
2022/07/01 06:26:06;;;;;;;6.53;5.75;;;;;20.80;101453.00;;;;5066980;28;20199;-76
2022/07/01 06:28:33;;;;;;;7.43;6.00;;;;;20.80;101455.00;;;;5065447;28;20199;-77
2022/07/01 06:31:00;;;;;;;11.05;6.13;;;;;20.80;101449.00;;;;5065523;28;20751;-77
2022/07/01 06:33:30;;;;;;;7.47;5.50;;;;;20.90;101446.00;;;;5066669;28;20203;-77
2022/07/01 06:35:58;;;;;;;7.60;5.38;;;;;20.90;101451.00;;;;5055440;28;20206;-76
2022/07/01 06:38:25;;;;;;;6.43;5.50;;;;;20.90;101452.00;;;;5048141;28;21033;-77
2022/07/01 06:43:35;;;;;;;11.63;5.35;;;;;21.00;101453.00;;;;5047893;28;20716;-77
2022/07/01 06:46:03;;;;;;;6.15;4.75;;;;;21.00;101454.00;;;;5048110;28;20230;-77
2022/07/01 06:48:30;;;;;;;6.65;4.05;;;;;21.10;101453.00;;;;5048336;28;20211;-77
2022/07/01 06:50:57;;;;;;;7.35;4.45;;;;;21.10;101456.00;;;;5048969;28;20204;-76
2022/07/01 06:53:25;;;;;;;8.45;4.63;;;;;21.20;101461.00;;;;5048950;28;20203;-77
2022/07/01 06:55:52;;;;;;;5.82;4.20;;;;;21.20;101457.00;;;;5048042;28;20723;-77
2022/07/01 06:58:19;;;;;;;6.75;4.28;;;;;21.30;101462.00;;;;5047661;28;20199;-77
2022/07/01 07:00:48;;;;;;;8.52;3.88;;;;;21.30;101460.00;;;;5048409;28;20203;-77
2022/07/01 07:03:15;;;;;;;7.78;4.05;;;;;21.40;101456.00;;;;5047647;28;20254;-77
2022/07/01 07:05:42;;;;;;;5.88;4.15;;;;;21.40;101460.00;;;;5048104;28;20764;-77
2022/07/01 07:08:10;;;;;;;5.97;3.88;;;;;21.50;101467.00;;;;5050565;28;20199;-77
2022/07/01 07:10:38;;;;;;;7.07;4.60;;;;;21.60;101469.00;;;;5048052;28;20196;-77
2022/07/01 07:13:05;;;;;;;6.63;4.13;;;;;21.70;101472.00;;;;5058437;28;20195;-77
2022/07/01 07:15:32;;;;;;;5.90;3.92;;;;;21.80;101478.00;;;;5064979;28;20213;-77
2022/07/01 07:18:01;;;;;;;5.35;3.55;;;;;21.80;101480.00;;;;5056559;28;20214;-77
2022/07/01 07:20:28;;;;;;;4.13;3.30;;;;;22.00;101485.00;;;;5047922;28;20674;-77
2022/07/01 07:22:56;;;;;;;6.43;3.72;;;;;22.00;101490.00;;;;5048220;28;20227;-77
2022/07/01 07:25:23;;;;;;;5.03;3.00;;;;;22.10;101487.00;;;;5067439;28;20203;-77
2022/07/01 07:27:50;;;;;;;4.35;3.33;;;;;22.10;101494.00;;;;5068329;28;20198;-77
2022/07/01 07:30:18;;;;;;;6.45;3.13;;;;;22.20;101502.00;;;;5049784;28;20199;-77
2022/07/01 07:32:46;;;;;;;3.00;2.70;;;;;22.30;101506.00;;;;5048079;28;20194;-76
2022/07/01 07:35:14;;;;;;;5.00;2.38;;;;;22.30;101507.00;;;;5053960;28;20200;-76
2022/07/01 07:37:43;;;;;;;6.20;2.58;;;;;22.40;101497.00;;;;5052191;28;20214;-77
2022/07/01 07:40:14;;;;;;;7.57;2.53;;;;;22.50;101501.00;;;;5051928;28;20596;-77
2022/07/01 07:42:42;;;;;;;7.80;2.25;;;;;22.50;101490.00;;;;5052357;28;20721;-77
2022/07/01 07:45:11;;;;;;;3.45;1.83;;;;;22.60;101503.00;;;;5051572;28;20190;-77
2022/07/01 07:47:39;;;;;;;2.72;1.80;;;;;22.60;101515.00;;;;5051460;28;20207;-78
2022/07/01 07:50:07;;;;;;;4.90;2.45;;;;;22.70;101508.00;;;;5051218;28;20211;-77
2022/07/01 07:52:37;;;;;;;3.05;1.98;;;;;22.70;101511.00;;;;5055640;28;20203;-77
2022/07/01 07:55:08;;;;;;;4.15;3.00;;;;;22.80;101517.00;;;;5070876;28;20249;-76
2022/07/01 07:57:37;;;;;;;3.83;2.30;;;;;22.80;101518.00;;;;5063689;28;20196;-77
2022/07/01 08:00:06;;;;;;;4.82;1.83;;;;;22.80;101518.00;;;;5050759;28;20207;-77
2022/07/01 08:02:33;;;;;;;4.80;2.28;;;;;22.90;101514.00;;;;5051382;28;20219;-78
2022/07/01 08:05:00;;;;;;;3.65;1.65;;;;;23.00;101515.00;;;;5051750;28;20203;-76
2022/07/01 08:07:28;;;;;;;3.20;1.38;;;;;23.00;101519.00;;;;5065862;28;20202;-77
2022/07/01 08:09:56;;;;;;;3.92;1.55;;;;;23.10;101513.00;;;;5056084;28;20191;-76
2022/07/01 08:12:26;;;;;;;1.30;1.20;;;;;23.20;101519.00;;;;5050727;28;20686;-76
2022/07/01 08:14:53;;;;;;;4.28;1.70;;;;;23.30;101520.00;;;;5059920;28;20222;-77
2022/07/01 08:17:20;;;;;;;19.08;1.83;;;;;23.40;101533.00;;;;5052268;28;20437;-76
2022/07/01 08:19:49;;;;;;;3.92;1.65;;;;;23.50;101532.00;;;;5050740;28;20589;-77
2022/07/01 08:22:16;;;;;;;3.47;1.60;;;;;23.60;101536.00;;;;5065515;28;20700;-76
2022/07/01 08:24:43;;;;;;;4.03;1.40;;;;;23.70;101534.00;;;;5057069;28;21405;-76
2022/07/01 08:27:12;;;;;;;5.07;1.75;;;;;23.70;101541.00;;;;5049672;28;20208;-77
2022/07/01 08:29:40;;;;;;;2.25;1.40;;;;;23.80;101545.00;;;;5050436;28;20253;-76
2022/07/01 08:32:08;;;;;;;5.07;1.30;;;;;23.80;101555.00;;;;5050172;28;20224;-76
2022/07/01 08:34:35;;;;;;;3.80;1.65;;;;;23.80;101564.00;;;;5049195;28;20203;-77
2022/07/01 08:37:03;;;;;;;3.83;1.58;;;;;23.80;101554.00;;;;5049948;28;20231;-76
2022/07/01 08:39:30;;;;;;;5.75;1.38;;;;;23.80;101560.00;;;;5049642;28;20592;-77
2022/07/01 08:41:58;;;;;;;3.20;0.90;;;;;23.80;101560.00;;;;5055428;28;20223;-77
2022/07/01 08:44:27;;;;;;;4.85;1.23;;;;;23.80;101559.00;;;;5059448;28;20207;-77
2022/07/01 08:46:54;;;;;;;1.13;0.80;;;;;23.90;101565.00;;;;5054404;28;20210;-77
2022/07/01 08:49:23;;;;;;;3.50;1.10;;;;;23.90;101564.00;;;;5056409;28;20197;-77
2022/07/01 08:51:50;;;;;;;3.30;1.00;;;;;23.90;101579.00;;;;5052974;28;20207;-77
2022/07/01 08:54:17;;;;;;;3.28;1.05;;;;;23.90;101572.00;;;;5049270;28;20227;-77
2022/07/01 08:56:45;;;;;;;3.47;0.93;;;;;24.00;101573.00;;;;5052100;28;20199;-77
2022/07/01 08:59:14;;;;;;;3.78;1.00;;;;;24.10;101585.00;;;;5069258;28;20195;-77
2022/07/01 09:01:43;;;;;;;5.13;1.00;;;;;24.10;101579.00;;;;5068555;28;20214;-77
2022/07/01 09:04:17;;;;;;;3.63;0.80;;;;;24.20;101586.00;;;;5063220;28;20206;-76
2022/07/01 09:06:45;;;;;;;1.90;0.55;;;;;24.30;101578.00;;;;5057975;28;20692;-77
2022/07/01 09:09:14;;;;;;;1.40;0.50;;;;;24.50;101574.00;;;;5068954;28;20195;-76
2022/07/01 09:11:54;;;;;;;2.92;1.00;;;;;24.50;101580.00;;;;5052998;28;20202;-77
2022/07/01 09:14:23;;;;;;;5.40;0.85;;;;;24.70;101578.00;;;;5049911;28;20207;-77
2022/07/01 09:16:54;;;;;;;1.70;0.68;;;;;24.80;101577.00;;;;5064867;28;20202;-76
2022/07/01 09:19:23;;;;;;;2.70;0.85;;;;;24.90;101584.00;;;;5050503;28;20207;-77
2022/07/01 09:21:51;;;;;;;3.58;0.82;;;;;25.00;101589.00;;;;5049952;28;20219;-76
2022/07/01 09:24:28;;;;;;;1.42;0.85;;;;;25.00;101579.00;;;;5063616;28;20210;-76
2022/07/01 09:26:56;;;;;;;2.15;0.50;;;;;25.20;101586.00;;;;5052352;28;20715;-76
2022/07/01 09:29:28;;;;;;;1.70;0.50;;;;;25.30;101579.00;;;;5049305;28;20207;-77
2022/07/01 09:31:57;;;;;;;2.75;0.70;;;;;25.50;101588.00;;;;5049519;28;20597;-77
2022/07/01 09:34:24;;;;;;;3.35;0.80;;;;;25.60;101572.00;;;;5049395;28;20214;-76
2022/07/01 09:36:56;;;;;;;0.80;0.40;;;;;25.80;101591.00;;;;5054643;28;20206;-77
2022/07/01 09:39:23;;;;;;;3.05;0.65;;;;;25.90;101585.00;;;;5054309;28;20203;-77
2022/07/01 09:41:54;;;;;;;2.25;0.50;;;;;26.00;101583.00;;;;5066471;28;20715;-77
2022/07/01 09:44:22;;;;;;;2.65;0.70;;;;;26.10;101585.00;;;;5058802;28;20204;-76
2022/07/01 09:47:00;;;;;;;2.95;0.65;;;;;26.10;101592.00;;;;5050061;28;20207;-76
2022/07/01 09:49:28;;;;;;;4.10;0.75;;;;;26.20;101586.00;;;;5049900;28;20739;-76
2022/07/01 09:51:55;;;;;;;1.25;0.43;;;;;26.20;101594.00;;;;5048610;28;20204;-75
2022/07/01 09:54:22;;;;;;;2.65;0.40;;;;;26.20;101599.00;;;;5049287;28;20592;-76
2022/07/01 09:56:49;;;;;;;1.23;0.50;;;;;26.20;101594.00;;;;5057995;28;20199;-76
2022/07/01 09:59:17;;;;;;;1.45;0.35;;;;;26.30;101598.00;;;;5067149;28;20187;-76
2022/07/01 10:01:45;;;;;;;1.00;0.52;;;;;26.30;101601.00;;;;5067536;28;20217;-76
2022/07/01 10:04:17;;;;;;;0.70;0.32;;;;;26.30;101601.00;;;;5059225;28;20214;-76
2022/07/01 10:07:02;;;;;;;1.35;0.35;;;;;26.30;101607.00;;;;5048938;28;20210;-76
2022/07/01 10:09:54;;;;;;;1.80;0.50;;;;;26.40;101612.00;;;;5049128;28;20195;-75
2022/07/01 10:12:39;;;;;;;0.35;0.22;;;;;26.40;101612.00;;;;5048341;28;20204;-76
2022/07/01 10:15:08;;;;;;;0.35;0.25;;;;;26.50;101613.00;;;;5048338;28;20210;-76
2022/07/01 10:17:38;;;;;;;3.33;0.45;;;;;26.50;101616.00;;;;5047981;28;20215;-76
2022/07/01 10:20:12;;;;;;;4.25;0.77;;;;;26.50;101623.00;;;;5055246;28;20202;-77
2022/07/01 10:22:40;;;;;;;0.90;0.52;;;;;26.60;101633.00;;;;5064073;28;20209;-76
2022/07/01 10:25:32;;;;;;;0.90;0.30;;;;;26.50;101634.00;;;;5047457;28;20203;-76
2022/07/01 10:28:27;;;;;;;2.60;0.47;;;;;26.50;101642.00;;;;5047783;28;20192;-75
2022/07/01 10:31:01;;;;;;;2.67;0.30;;;;;26.60;101633.00;;;;5038524;28;20223;-76
2022/07/01 10:33:42;;;;;;;1.58;0.40;;;;;26.60;101640.00;;;;5047096;28;20202;-76
2022/07/01 10:36:24;;;;;;;1.65;0.40;;;;;26.70;101634.00;;;;5047536;28;20588;-76
2022/07/01 10:39:22;;;;;;;1.85;0.40;;;;;26.60;101629.00;;;;5046751;28;20199;-76
2022/07/01 10:42:04;;;;;;;1.45;0.60;;;;;26.60;101632.00;;;;5047443;28;20314;-77
2022/07/01 10:44:35;;;;;;;1.20;0.50;;;;;26.70;101644.00;;;;5048045;28;20203;-76
2022/07/01 10:47:07;;;;;;;2.95;0.70;;;;;26.60;101646.00;;;;5056267;28;20687;-76
2022/07/01 10:49:59;;;;;;;1.63;0.52;;;;;26.50;101646.00;;;;5045426;28;20203;-76
2022/07/01 10:52:28;;;;;;;2.35;0.50;;;;;26.60;101653.00;;;;5062558;28;20200;-76
2022/07/01 10:54:57;;;;;;;2.35;0.40;;;;;26.60;101648.00;;;;5048135;28;20227;-76
2022/07/01 10:57:33;;;;;;;1.33;0.38;;;;;26.60;101647.00;;;;5056952;28;20197;-77
2022/07/01 11:00:30;;;;;;;0.68;0.35;;;;;26.50;101657.00;;;;5067966;28;20187;-76
2022/07/01 11:03:05;;;;;;;1.08;0.43;;;;;26.60;101649.00;;;;5066319;28;20222;-77
2022/07/01 11:05:32;;;;;;;0.70;0.40;;;;;26.50;101656.00;;;;5048334;28;20203;-76
2022/07/01 11:08:01;;;;;;;7.53;0.57;;;;;26.50;101643.00;;;;5048510;28;20644;-76
2022/07/01 11:10:28;;;;;;;1.23;0.40;;;;;26.50;101641.00;;;;5068784;28;20202;-76
2022/07/01 11:12:56;;;;;;;1.10;0.35;;;;;26.60;101635.00;;;;5070647;28;20217;-77
2022/07/01 11:15:23;;;;;;;2.08;0.70;;;;;26.60;101631.00;;;;5070466;28;20228;-76
2022/07/01 11:17:51;;;;;;;0.77;0.40;;;;;26.60;101637.00;;;;5068077;28;20203;-76
2022/07/01 11:20:22;;;;;;;1.92;0.35;;;;;26.60;101637.00;;;;5051406;28;20202;-77
2022/07/01 11:22:50;;;;;;;1.92;0.75;;;;;26.70;101637.00;;;;5067311;28;20223;-76
2022/07/01 11:25:20;;;;;;;0.40;0.20;;;;;26.70;101639.00;;;;5054898;28;20200;-77
2022/07/01 11:27:49;;;;;;;0.77;0.30;;;;;26.70;101640.00;;;;5052046;28;20199;-77
2022/07/01 11:30:19;;;;;;;0.98;0.40;;;;;26.70;101648.00;;;;5050927;28;20206;-76
2022/07/01 11:32:48;;;;;;;4.25;0.85;;;;;26.70;101647.00;;;;5061030;28;20594;-76
2022/07/01 11:40:53;;;;;;;1.00;0.50;;;;;26.80;101645.00;;;;5071959;28;20202;-76
2022/07/01 11:43:23;;;;;;;0.95;0.45;;;;;26.80;101636.00;;;;5056585;28;20215;-77
2022/07/01 11:45:50;;;;;;;0.85;0.40;;;;;26.80;101635.00;;;;5056053;28;20573;-76
2022/07/01 11:48:39;;;;;;;2.15;0.30;;;;;26.70;101630.00;;;;5050982;28;20203;-76
2022/07/01 11:51:10;;;;;;;1.17;0.45;;;;;26.90;101631.00;;;;5051138;28;20274;-77
2022/07/01 11:53:37;;;;;;;0.95;0.35;;;;;26.90;101630.00;;;;5063776;28;20191;-77
2022/07/01 11:56:07;;;;;;;3.15;0.50;;;;;26.90;101627.00;;;;5058953;28;20307;-77
2022/07/01 11:58:49;;;;;;;3.03;0.60;;;;;26.80;101624.00;;;;5051144;28;20194;-77
2022/07/01 12:01:28;;;;;;;1.33;0.30;;;;;26.90;101617.00;;;;5051403;28;20669;-79
2022/07/01 12:03:57;;;;;;;1.75;0.40;;;;;26.90;101623.00;;;;5053302;28;20230;-78
2022/07/01 12:06:26;;;;;;;1.10;0.50;;;;;26.90;101620.00;;;;5049998;28;20721;-81
2022/07/01 12:08:57;;;;;;;0.57;0.35;;;;;27.00;101616.00;;;;5051679;28;20200;-80
2022/07/01 12:11:28;;;;;;;1.98;0.65;;;;;26.90;101623.00;;;;5052762;28;20254;-78
2022/07/01 12:13:57;;;;;;;0.93;0.25;;;;;27.00;101624.00;;;;5056791;28;20206;-79
2022/07/01 12:16:25;;;;;;;2.78;0.40;;;;;27.00;101615.00;;;;5055453;28;20296;-79
2022/07/01 12:18:57;;;;;;;1.52;0.40;;;;;27.00;101615.00;;;;5050507;28;20273;-79
2022/07/01 12:21:25;;;;;;;3.42;0.50;;;;;27.00;101620.00;;;;5049090;28;20202;-79
2022/07/01 12:24:10;;;;;;;1.27;0.40;;;;;27.00;101620.00;;;;5068295;28;20242;-80
2022/07/01 12:26:51;;;;;;;1.33;0.30;;;;;27.00;101629.00;;;;5058877;28;20200;-80